• Join FlightAware (Why Join?)
  • Login
  • US Flag 
 
01:59AM EST


 

Airport Tracker/Info


-or-


 

Live Flight TrackerFlight Track Log ✈ VH-JTG ✈ 01-Oct-2013 ✈ YBBN / BNE - YOSB

Flight Track Log - Related Links

Times and Time Zones

All times are in EDT time to prevent confusion due to time zone crossing. See the VH-JTG flight status page for this flight to view local times or setup timezone preferences in your user account.

Time Position Orientation Groundspeed Altitude Reporting Facility
EDT Latitude Longitude Course Direction KTS MPH feet Rate Location/Type
04:02PM -27.3845 153.2544 177° South 238 274 5,000  Level Aus ATC (RADAR)
04:03PM -27.4182 153.2566 177° South 245 282 6,200 2,580 Climbing Aus ATC (RADAR)
04:04PM -27.4363 153.1801 255° West 231 266 9,100 2,400 Climbing Aus ATC (RADAR)
04:05PM -27.3925 153.1009 302° West 247 284 11,700 2,040 Climbing Aus ATC (RADAR)
04:06PM -27.3534 153.0288 301° West 267 307 13,600 2,040 Climbing Aus ATC (RADAR)
04:07PM -27.3100 152.9460 301° West 273 314 16,000 2,160 Climbing Aus ATC (RADAR)
04:08PM -27.2693 152.8704 301° West 273 314 18,100 1,980 Climbing Aus ATC (RADAR)
04:09PM -27.2242 152.7866 301° West 284 327 20,200 1,860 Climbing Aus ATC (RADAR)
04:10PM -27.1779 152.6990 301° West 293 337 22,200 1,860 Climbing Aus ATC (RADAR)
04:11PM -27.1332 152.6169 301° West 301 346 24,100 1,800 Climbing Aus ATC (RADAR)
04:12PM -27.0876 152.5333 301° West 308 354 25,800 1,560 Climbing Aus ATC (RADAR)
04:13PM -27.0395 152.4378 300° West 318 366 27,400 1,380 Climbing Aus ATC (RADAR)
04:14PM -26.9956 152.3461 298° West 328 377 28,700 1,440 Climbing Aus ATC (RADAR)
04:15PM -26.9472 152.2445 298° West 335 386 30,400 1,500 Climbing Aus ATC (RADAR)
04:17PM -26.8754 152.0940 298° West 341 392 32,700 1,440 Climbing Aus ATC (RADAR)
04:18PM -26.8190 151.9750 298° West 338 389 34,500 1,320 Climbing Aus ATC (RADAR)
04:19PM -26.7700 151.8735 298° West 335 386 35,800 660 Climbing Aus ATC (RADAR)
04:20PM -26.7046 151.7356 298° West 360 414 36,200 180 Climbing Aus ATC (RADAR)
04:21PM -26.6660 151.6568 299° West 381 438 36,200  Level Aus ATC (RADAR)
04:22PM -26.6091 151.5383 298° West 395 455 36,200  Level Aus ATC (RADAR)
04:23PM -26.5469 151.4094 298° West 402 463 36,200  Level Aus ATC (RADAR)
04:25PM -26.4892 151.2903 298° West 397 457 36,200  Level Aus ATC (RADAR)
04:26PM -26.4311 151.1713 299° West 399 459 36,200  Level Aus ATC (RADAR)
04:27PM -26.3782 151.0619 298° West 396 456 36,200  Level Aus ATC (RADAR)
04:28PM -26.3201 150.9436 299° West 397 457 36,200  Level Aus ATC (RADAR)
04:29PM -26.2617 150.8255 299° West 396 456 36,200  Level Aus ATC (RADAR)
04:30PM -26.2043 150.7076 298° West 394 453 36,200  Level Aus ATC (RADAR)
04:32PM -26.1126 150.5210 299° West 387 445 36,200  Level Aus ATC (RADAR)
04:33PM -26.0214 150.3363 299° West 383 441 36,200  Level Aus ATC (RADAR)
04:34PM -25.9649 150.2228 299° West 384 442 36,200  Level Aus ATC (RADAR)
04:36PM -25.8960 150.0841 299° West 381 438 36,200  Level Aus ATC (RADAR)
04:37PM -25.8408 149.9742 299° West 374 430 36,200  Level Aus ATC (RADAR)
04:38PM -25.7879 149.8616 298° West 377 434 36,200  Level Aus ATC (RADAR)
04:39PM -25.7435 149.7488 294° West 366 421 36,200  Level Aus ATC (RADAR)
04:40PM -25.6984 149.6358 294° West 367 422 36,200  Level Aus ATC (RADAR)
04:41PM -25.6533 149.5230 294° West 369 425 36,200  Level Aus ATC (RADAR)
04:42PM -25.6114 149.4193 294° West 369 425 36,200  Level Aus ATC (RADAR)
04:43PM -25.5665 149.3071 294° West 366 421 36,200  Level Aus ATC (RADAR)
04:44PM -25.5215 149.1948 294° West 366 421 36,200  Level Aus ATC (RADAR)
04:46PM -25.4347 148.9792 294° West 366 421 36,200  Level Aus ATC (RADAR)
04:47PM -25.4241 148.9533 295° West 366 421 36,200  Level Aus ATC (RADAR)
04:48PM -25.3641 148.8067 294° West 370 426 36,200  Level Aus ATC (RADAR)
04:49PM -25.3338 148.7303 294° West 362 417 36,200  Level Aus ATC (RADAR)
04:50PM -25.2872 148.6182 295° West 366 421 36,200  Level Aus ATC (RADAR)
04:51PM -25.2348 148.4893 294° West 368 423 36,200  Level Aus ATC (RADAR)
04:52PM -25.1890 148.3780 294° West 366 421 36,200  Level Aus ATC (RADAR)
04:53PM -25.1429 148.2660 294° West 364 419 36,200  Level Aus ATC (RADAR)
04:55PM -25.0897 148.1444 296° West 384 442 36,200  Level Aus ATC (RADAR)
04:56PM -25.0472 148.0343 293° West 369 425 36,200  Level Aus ATC (RADAR)
04:57PM -25.0002 147.9296 296° West 383 441 36,200  Level Aus ATC (RADAR)
04:58PM -24.9595 147.8212 292° West 362 417 36,200  Level Aus ATC (RADAR)
04:59PM -24.9136 147.7104 295° West 366 421 36,200  Level Aus ATC (RADAR)
05:01PM -24.8278 147.5053 295° West 368 423 36,200  Level Aus ATC (RADAR)
05:02PM -24.7815 147.3948 295° West 367 422 36,200  Level Aus ATC (RADAR)
05:02PM -24.7707 147.3690 295° West 368 423 36,200  Level Aus ATC (RADAR)
05:03PM -24.7388 147.2927 295° West 367 422 36,200  Level Aus ATC (RADAR)
05:04PM -24.7055 147.2235 298° West 378 435 36,200  Level Aus ATC (RADAR)
05:04PM -24.6740 147.1544 297° West 380 437 36,200  Level Aus ATC (RADAR)
05:05PM -24.6558 147.1114 295° West 378 435 36,200  Level Aus ATC (RADAR)
05:06PM -24.5981 146.9592 293° West 371 427 36,200  Level Aus ATC (RADAR)
05:06PM -24.5835 146.9254 295° West 370 426 36,200  Level Aus ATC (RADAR)
05:07PM -24.5583 146.8658 295° West 368 423 36,200  Level Aus ATC (RADAR)
05:08PM -24.5254 146.7885 295° West 372 428 36,200  Level Aus ATC (RADAR)
05:08PM -24.4998 146.7289 295° West 370 426 36,200  Level Aus ATC (RADAR)
05:09PM -24.4748 146.6693 295° West 370 426 36,200 -120 Level Aus ATC (RADAR)
05:10PM -24.4455 146.6008 295° West 371 427 36,100 -60 Descending Aus ATC (RADAR)
05:11PM -24.3682 146.4215 295° West 372 428 36,100  Level Aus ATC (RADAR)
05:12PM -24.3502 146.3792 295° West 369 425 36,100  Level Aus ATC (RADAR)
05:12PM -24.3246 146.3198 295° West 370 426 36,100  Level Aus ATC (RADAR)
05:13PM -24.2985 146.2605 296° West 371 427 36,100  Level Aus ATC (RADAR)
05:14PM -24.2635 146.1808 296° West 541 623 36,100  Level Aus ATC (RADAR)
05:14PM -24.2379 146.1219 295° West 393 452 36,100  Level Aus ATC (RADAR)
05:17PM -24.1340 145.8798 295° West 354 407 36,100  Level Aus ATC (RADAR)
05:17PM -24.1227 145.8538 296° West 357 411 36,100  Level Aus ATC (RADAR)
05:18PM -24.0971 145.7959 296° West 360 414 36,100  Level Aus ATC (RADAR)
05:18PM -24.0681 145.7289 295° West 363 418 36,100  Level Aus ATC (RADAR)
05:19PM -24.0381 145.6615 296° West 365 420 36,100  Level Aus ATC (RADAR)
05:19PM -24.0157 145.6105 296° West 367 422 36,100  Level Aus ATC (RADAR)
05:21PM -23.9827 145.5354 296° West  Level FlightAware Approximate
05:28PM -23.7724 145.0586 296° West  Level FlightAware Approximate
05:29PM -23.7422 144.9907 296° West  Level FlightAware Approximate
05:30PM -23.7120 144.9227 296° West  Level FlightAware Approximate
05:31PM -23.6818 144.8548 296° West  Level FlightAware Approximate
05:32PM -23.6516 144.7869 296° West  Level FlightAware Approximate
05:33PM -23.6213 144.7190 296° West  Level FlightAware Approximate
05:34PM -23.5910 144.6512 296° West  Level FlightAware Approximate
05:35PM -23.5606 144.5834 296° West  Level FlightAware Approximate
05:36PM -23.5303 144.5157 296° West  Level FlightAware Approximate
05:37PM -23.4999 144.4479 296° West  Level FlightAware Approximate
05:38PM -23.4694 144.3802 296° West  Level FlightAware Approximate
05:39PM -23.4390 144.3125 296° West  Level FlightAware Approximate
05:40PM -23.4284 144.2891 295° West  Level FlightAware Approximate
05:41PM -23.4040 144.2186 295° West  Level Estimated
05:42PM -23.4284 144.2891 295° West  Level FlightAware Approximate
05:43PM -23.4040 144.2186 295° West  Level Estimated
05:44PM -23.4284 144.2891 295° West  Level FlightAware Approximate
05:45PM -23.4040 144.2186 295° West  Level Estimated
05:46PM -23.4284 144.2891 295° West  Level FlightAware Approximate
05:47PM -23.4040 144.2186 295° West  Level Estimated
05:48PM -23.4284 144.2891 295° West  Level FlightAware Approximate
05:49PM -23.4040 144.2186 295° West  Level Estimated
05:50PM -23.4284 144.2891 295° West  Level FlightAware Approximate
05:51PM -23.4040 144.2186 295° West  Level Estimated
05:52PM -23.4284 144.2891 295° West  Level FlightAware Approximate
05:53PM -23.4040 144.2186 295° West  Level Estimated
05:54PM -23.4284 144.2891 295° West  Level FlightAware Approximate
05:55PM -23.4040 144.2186 295° West  Level Estimated
05:56PM -23.4284 144.2891 295° West  Level FlightAware Approximate
05:57PM -23.4040 144.2186 295° West  Level Estimated
05:58PM -23.4284 144.2891 295° West  Level FlightAware Approximate
05:59PM -23.4040 144.2186 295° West  Level Estimated
06:00PM -23.4284 144.2891 295° West  Level FlightAware Approximate
06:01PM -23.4040 144.2186 295° West  Level Estimated
06:02PM -23.4284 144.2891 295° West  Level FlightAware Approximate
06:03PM -23.4040 144.2186 295° West  Level Estimated
06:04PM -23.4284 144.2891 295° West  Level FlightAware Approximate
06:05PM -23.4040 144.2186 295° West  Level Estimated
06:06PM -23.4284 144.2891 295° West  Level FlightAware Approximate
06:07PM -23.4040 144.2186 295° West  Level Estimated
06:08PM -23.4284 144.2891 295° West  Level FlightAware Approximate
06:09PM -23.4040 144.2186 295° West  Level Estimated
06:10PM -23.4284 144.2891 295° West  Level FlightAware Approximate
06:11PM -23.4040 144.2186 295° West  Level Estimated
06:12PM -23.4284 144.2891 295° West  Level FlightAware Approximate
06:13PM -23.4040 144.2186 295° West  Level Estimated
06:14PM -23.4284 144.2891 295° West  Level FlightAware Approximate